Time;durP1;ratioP1;P1;durP2;ratioP2;P2;SDS_P1;SDS_P2;PMS_P1;PMS_P2;Temp;Humidity;BMP_temperature;BMP_pressure;BME280_temperature;BME280_humidity;BME280_pressure;Samples;Min_cycle;Max_cycle;Signal;HPM_P1;HPM_P2
2022/07/19 00:00:18;;;;;;;;;12.00;11.25;;;;;32.19;23.61;100896.19;5098975;27;45398;-50
2022/07/19 00:02:43;;;;;;;;;10.60;9.20;;;;;32.21;24.13;100898.69;5080443;27;45855;-53
2022/07/19 00:05:09;;;;;;;;;9.50;8.00;;;;;32.17;24.13;100892.09;5033053;27;46006;-54
2022/07/19 00:07:35;;;;;;;;;11.00;11.00;;;;;32.19;24.43;100889.72;5078455;28;45280;-50
2022/07/19 00:10:01;;;;;;;;;8.50;8.50;;;;;32.09;24.52;100881.66;5060338;28;45402;-51
2022/07/19 00:12:26;;;;;;;;;10.25;10.25;;;;;32.08;24.12;100891.38;5078327;28;46380;-47
2022/07/19 00:14:52;;;;;;;;;7.75;7.00;;;;;32.04;24.10;100889.28;5078366;28;45325;-51
2022/07/19 00:17:17;;;;;;;;;8.50;8.25;;;;;32.00;23.98;100894.00;5077965;28;45385;-51
2022/07/19 00:19:43;;;;;;;;;9.25;8.50;;;;;31.86;24.22;100873.66;5078358;28;45713;-52
2022/07/19 00:22:08;;;;;;;;;8.00;8.00;;;;;31.85;23.90;100872.03;5077911;28;46498;-52
2022/07/19 00:24:34;;;;;;;;;8.75;7.50;;;;;31.87;24.13;100881.84;5078233;28;45575;-49
2022/07/19 00:26:59;;;;;;;;;8.50;8.50;;;;;31.81;24.51;100880.38;5077779;28;45432;-52
2022/07/19 00:29:24;;;;;;;;;9.00;7.75;;;;;31.90;24.33;100892.47;5094634;27;45536;-49
2022/07/19 00:31:50;;;;;;;;;10.25;7.50;;;;;31.81;24.33;100876.72;5098322;27;45770;-51
2022/07/19 00:34:15;;;;;;;;;11.25;9.25;;;;;31.78;24.06;100875.41;5098475;27;45246;-53
2022/07/19 00:36:41;;;;;;;;;8.00;8.00;;;;;31.88;23.85;100888.31;5098084;27;45210;-54
2022/07/19 00:39:07;;;;;;;;;9.00;7.00;;;;;31.66;24.26;100856.38;5080486;27;45657;-50
2022/07/19 00:41:32;;;;;;;;;6.50;6.50;;;;;31.82;24.49;100884.88;5097498;27;45725;-51
2022/07/19 00:43:58;;;;;;;;;7.50;6.75;;;;;31.83;24.41;100888.53;5079803;27;45412;-51
2022/07/19 00:46:23;;;;;;;;;7.25;7.25;;;;;31.77;24.37;100883.09;5098215;27;45345;-50
2022/07/19 00:48:49;;;;;;;;;7.75;7.00;;;;;31.70;24.54;100874.34;5098626;27;45616;-52
2022/07/19 00:51:15;;;;;;;;;6.25;5.25;;;;;31.73;24.46;100882.16;5079806;27;45466;-54
2022/07/19 00:53:41;;;;;;;;;7.40;5.60;;;;;31.72;23.52;100879.66;5097846;27;45427;-51
2022/07/19 00:56:07;;;;;;;;;6.80;6.00;;;;;31.68;23.94;100870.22;5098149;27;45380;-51
2022/07/19 00:58:34;;;;;;;;;6.00;6.00;;;;;31.66;23.65;100870.56;5062923;27;45479;-51
2022/07/19 01:00:59;;;;;;;;;7.60;6.00;;;;;31.64;24.15;100878.59;5097877;27;46795;-51
2022/07/19 01:03:25;;;;;;;;;4.80;4.80;;;;;31.35;23.62;100835.09;5098024;27;45433;-51
2022/07/19 01:05:51;;;;;;;;;5.00;5.00;;;;;31.53;23.89;100863.22;5079554;27;45344;-51
2022/07/19 01:08:17;;;;;;;;;4.00;4.00;;;;;31.56;23.68;100868.19;5098185;27;45491;-50
2022/07/19 01:10:43;;;;;;;;;7.50;6.50;;;;;31.56;23.78;100868.19;5098045;27;45831;-52
2022/07/19 01:13:08;;;;;;;;;5.00;5.00;;;;;31.48;24.12;100859.44;5097632;27;45231;-52
2022/07/19 01:15:34;;;;;;;;;5.75;4.75;;;;;31.51;23.88;100866.41;5079798;27;45473;-53
2022/07/19 01:17:59;;;;;;;;;6.50;6.50;;;;;31.48;24.10;100864.31;5097839;27;45561;-53
2022/07/19 01:20:25;;;;;;;;;7.00;5.25;;;;;31.41;24.11;100862.03;5079339;27;45882;-49
2022/07/19 01:22:50;;;;;;;;;7.00;7.00;;;;;31.44;23.73;100866.16;5097529;27;45437;-51
2022/07/19 01:25:16;;;;;;;;;7.00;5.00;;;;;31.41;24.50;100864.88;5069696;27;45347;-48
2022/07/19 01:27:43;;;;;;;;;6.50;6.50;;;;;31.35;24.45;100858.59;5079340;27;45313;-51
2022/07/19 01:30:16;;;;;;;;;6.00;4.20;;;;;31.23;24.48;100844.38;5096491;27;46389;-54
2022/07/19 01:32:41;;;;;;;;;6.00;4.20;;;;;31.35;24.37;100858.59;5096373;27;45479;-50
2022/07/19 01:35:08;;;;;;;;;4.00;4.00;;;;;31.31;24.23;100856.84;5096735;27;45389;-53
2022/07/19 01:37:34;;;;;;;;;4.25;4.25;;;;;31.27;24.59;100855.88;4994745;27;45757;-50
2022/07/19 01:40:01;;;;;;;;;5.40;5.40;;;;;31.24;24.53;100863.88;5038429;28;46810;-53
2022/07/19 01:42:26;;;;;;;;;6.60;5.80;;;;;31.22;24.73;100854.06;5056086;28;45449;-52
2022/07/19 01:44:52;;;;;;;;;4.25;4.25;;;;;31.23;24.28;100853.72;5056625;28;45448;-56
2022/07/19 01:47:17;;;;;;;;;7.50;7.50;;;;;31.21;24.67;100855.25;5056365;28;45503;-51
2022/07/19 01:49:43;;;;;;;;;5.00;5.00;;;;;31.21;24.83;100852.41;5038248;28;45544;-50
2022/07/19 01:52:08;;;;;;;;;12.25;10.75;;;;;31.15;25.35;100845.31;5054917;28;45352;-52
2022/07/19 01:54:34;;;;;;;;;7.00;7.00;;;;;31.17;25.12;100849.47;5037767;28;45271;-48
2022/07/19 01:56:59;;;;;;;;;7.00;7.00;;;;;31.15;24.89;100853.81;5056418;28;45496;-52
2022/07/19 01:59:24;;;;;;;;;7.50;6.75;;;;;30.99;25.19;100828.97;5056065;28;45515;-52
2022/07/19 02:01:50;;;;;;;;;6.00;6.00;;;;;31.08;24.89;100845.88;5037835;28;45332;-50
2022/07/19 02:04:15;;;;;;;;;7.50;5.00;;;;;31.06;24.96;100849.06;5038097;28;45443;-49
2022/07/19 02:06:41;;;;;;;;;6.00;6.00;;;;;31.05;24.97;100844.56;5056082;28;45514;-50
2022/07/19 02:09:06;;;;;;;;;4.50;4.50;;;;;31.01;25.03;100843.63;5056025;28;45987;-52
2022/07/19 02:11:34;;;;;;;;;6.50;6.50;;;;;31.00;24.88;100849.66;5055614;28;45300;-53
2022/07/19 02:14:00;;;;;;;;;4.60;4.60;;;;;31.00;25.10;100846.81;5056033;28;45373;-51
2022/07/19 02:16:26;;;;;;;;;11.00;6.00;;;;;30.92;25.07;100845.72;5056092;28;45659;-50
2022/07/19 02:18:51;;;;;;;;;6.00;6.00;;;;;30.86;25.37;100841.44;5055416;28;45380;-52
2022/07/19 02:21:17;;;;;;;;;6.00;6.00;;;;;30.87;25.38;100840.25;5055752;28;45415;-50
2022/07/19 02:23:43;;;;;;;;;6.75;6.50;;;;;30.83;25.70;100842.97;5055761;28;45405;-49
2022/07/19 02:26:08;;;;;;;;;5.25;5.25;;;;;30.64;25.04;100812.31;5021697;28;45428;-54
2022/07/19 02:28:33;;;;;;;;;8.50;6.75;;;;;30.76;25.87;100837.88;5037490;28;46512;-54
2022/07/19 02:30:59;;;;;;;;;7.50;7.50;;;;;30.59;25.37;100806.88;5055628;28;45483;-51
2022/07/19 02:33:24;;;;;;;;;6.00;6.00;;;;;30.67;25.17;100815.31;5055891;28;45350;-52
2022/07/19 02:35:50;;;;;;;;;5.50;5.50;;;;;30.73;25.14;100821.56;5056027;28;45350;-49
2022/07/19 02:38:15;;;;;;;;;5.00;5.00;;;;;30.64;25.02;100817.97;5055514;28;45856;-51
2022/07/19 02:40:41;;;;;;;;;8.00;7.00;;;;;30.68;25.38;100827.47;5055640;28;45452;-50
2022/07/19 02:43:06;;;;;;;;;7.00;6.75;;;;;30.53;25.44;100806.25;5055805;28;45790;-52
2022/07/19 02:45:31;;;;;;;;;6.00;6.00;;;;;30.64;25.31;100830.16;5037944;28;45399;-54
2022/07/19 02:47:57;;;;;;;;;7.50;5.75;;;;;30.60;25.24;100817.84;5055538;28;46390;-49
2022/07/19 02:50:22;;;;;;;;;6.00;6.00;;;;;30.53;24.94;100815.56;5055843;28;45381;-52
2022/07/19 02:52:48;;;;;;;;;5.00;5.00;;;;;30.48;25.55;100812.97;5055608;28;45425;-49
2022/07/19 02:55:13;;;;;;;;;7.00;5.75;;;;;30.48;25.47;100820.63;5055983;28;45294;-51
2022/07/19 02:57:39;;;;;;;;;6.75;5.00;;;;;30.25;25.38;100787.03;5037367;28;45398;-52
2022/07/19 03:00:07;;;;;;;;;5.25;5.00;;;;;30.39;25.18;100806.53;5037696;28;45362;-52
2022/07/19 03:02:32;;;;;;;;;4.80;4.80;;;;;30.41;25.24;100813.53;5037415;28;45399;-53
2022/07/19 03:04:58;;;;;;;;;5.50;4.50;;;;;30.41;25.54;100807.84;5058141;28;45270;-52
2022/07/19 03:07:23;;;;;;;;;6.50;6.50;;;;;30.36;25.28;100799.56;5059114;28;45545;-51
2022/07/19 03:09:49;;;;;;;;;7.75;5.75;;;;;30.34;25.35;100804.75;5058897;28;45358;-48
2022/07/19 03:12:14;;;;;;;;;7.25;6.00;;;;;30.15;25.79;100782.63;5059018;28;45307;-51
2022/07/19 03:14:40;;;;;;;;;6.00;5.50;;;;;30.25;26.36;100806.84;5041360;28;45493;-51
2022/07/19 03:17:05;;;;;;;;;6.50;6.25;;;;;30.25;26.04;100809.69;5058461;28;45566;-52
2022/07/19 03:19:30;;;;;;;;;5.00;4.50;;;;;30.23;26.14;100809.19;5058628;28;45322;-52
2022/07/19 03:21:56;;;;;;;;;5.50;5.00;;;;;30.15;26.08;100810.91;5059018;28;45477;-51
2022/07/19 03:24:22;;;;;;;;;7.75;5.75;;;;;30.11;26.30;100818.44;5037200;28;45441;-51
2022/07/19 03:26:47;;;;;;;;;8.25;7.00;;;;;30.08;26.12;100817.13;5038200;28;47378;-49
2022/07/19 03:29:13;;;;;;;;;6.25;5.25;;;;;30.05;25.92;100809.31;5037892;28;46347;-53
2022/07/19 03:31:38;;;;;;;;;7.50;6.00;;;;;30.02;26.21;100810.81;5038719;28;45382;-52
2022/07/19 03:34:03;;;;;;;;;8.25;8.00;;;;;29.95;26.44;100809.69;5038225;28;45827;-51
2022/07/19 03:36:29;;;;;;;;;5.25;5.25;;;;;29.86;26.21;100802.09;5038137;28;45756;-49
2022/07/19 03:38:56;;;;;;;;;6.00;6.00;;;;;29.94;26.00;100813.69;5032328;28;45371;-53
2022/07/19 03:41:21;;;;;;;;;6.20;6.20;;;;;29.92;26.32;100811.19;5017961;28;45855;-49
2022/07/19 03:43:47;;;;;;;;;7.25;6.50;;;;;29.83;26.87;100822.56;5032151;28;45370;-50
2022/07/19 03:46:12;;;;;;;;;5.75;5.75;;;;;29.81;26.67;100815.63;5037901;28;46119;-50
2022/07/19 03:48:38;;;;;;;;;7.75;6.25;;;;;29.63;26.38;100776.94;5038193;28;45423;-55
2022/07/19 03:51:04;;;;;;;;;7.75;5.75;;;;;29.66;26.78;100781.09;5036957;28;45505;-54
2022/07/19 03:53:29;;;;;;;;;5.00;5.00;;;;;29.80;26.42;100809.13;5036750;28;45509;-50
2022/07/19 03:55:54;;;;;;;;;6.00;6.00;;;;;29.65;26.34;100778.63;5037751;28;46542;-51
2022/07/19 03:58:20;;;;;;;;;6.50;6.50;;;;;29.68;26.51;100784.41;5037788;28;45353;-54
2022/07/19 04:00:45;;;;;;;;;6.50;6.50;;;;;29.78;26.50;100808.66;5038323;28;45931;-55
2022/07/19 04:03:11;;;;;;;;;5.75;5.75;;;;;29.79;26.45;100807.47;5037839;28;45460;-56
2022/07/19 04:05:37;;;;;;;;;9.00;6.80;;;;;29.58;26.84;100777.16;5037624;28;45750;-52
2022/07/19 04:08:03;;;;;;;;;5.25;5.25;;;;;29.74;26.83;100811.34;5037816;28;45315;-51
2022/07/19 04:10:28;;;;;;;;;9.00;8.00;;;;;29.72;26.96;100807.19;5037719;28;45459;-55
2022/07/19 04:12:54;;;;;;;;;5.25;5.25;;;;;29.56;26.54;100787.16;5036804;28;45338;-52
2022/07/19 04:15:19;;;;;;;;;5.25;5.25;;;;;29.69;26.94;100810.69;5036730;28;46683;-53
2022/07/19 04:17:45;;;;;;;;;6.75;6.00;;;;;29.66;26.83;100805.72;5036184;28;45422;-53
2022/07/19 04:20:11;;;;;;;;;8.00;6.25;;;;;29.64;26.94;100811.72;5037436;28;45290;-56
2022/07/19 04:22:36;;;;;;;;;8.00;7.00;;;;;29.56;26.58;100804.13;5037961;28;45621;-51
2022/07/19 04:25:02;;;;;;;;;6.75;6.75;;;;;29.63;27.56;100812.88;5054719;28;45802;-49
2022/07/19 04:27:29;;;;;;;;;7.75;6.00;;;;;29.59;27.24;100809.91;5057689;28;45515;-52
2022/07/19 04:29:54;;;;;;;;;6.60;5.80;;;;;29.56;27.33;100804.94;5057488;28;45497;-50
2022/07/19 04:32:20;;;;;;;;;6.75;6.75;;;;;29.58;27.12;100802.59;5040162;28;45577;-50
2022/07/19 04:34:45;;;;;;;;;7.25;7.25;;;;;29.56;27.05;100804.13;5057564;28;46691;-54
2022/07/19 04:37:11;;;;;;;;;6.00;6.00;;;;;29.36;27.56;100772.59;5057234;28;45365;-53
2022/07/19 04:39:36;;;;;;;;;7.00;7.00;;;;;29.40;27.16;100772.75;5057681;28;45366;-50
2022/07/19 04:42:02;;;;;;;;;8.50;7.25;;;;;29.54;26.76;100797.94;5051521;27;45398;-50
2022/07/19 04:44:28;;;;;;;;;7.00;7.00;;;;;29.52;27.16;100797.47;5040262;28;45381;-49
2022/07/19 04:46:53;;;;;;;;;6.50;6.25;;;;;29.41;27.31;100785.69;5057193;28;45331;-50
2022/07/19 04:49:19;;;;;;;;;8.75;8.75;;;;;29.49;27.54;100798.97;5057476;28;45254;-57
2022/07/19 04:51:44;;;;;;;;;6.50;6.50;;;;;29.52;27.19;100797.47;5057821;28;45595;-54
2022/07/19 04:54:10;;;;;;;;;7.75;7.75;;;;;29.54;27.23;100797.94;5057186;28;46430;-51
2022/07/19 04:56:35;;;;;;;;;8.00;8.00;;;;;29.40;26.90;100778.38;5057305;28;45454;-53
2022/07/19 04:59:00;;;;;;;;;8.25;6.50;;;;;29.51;27.11;100793.84;5057431;28;45350;-53
2022/07/19 05:01:26;;;;;;;;;8.00;7.00;;;;;29.55;27.43;100803.28;5057605;28;45889;-54
2022/07/19 05:03:51;;;;;;;;;9.00;9.00;;;;;29.41;27.20;100780.03;5057033;28;45398;-53
2022/07/19 05:06:17;;;;;;;;;8.00;7.25;;;;;29.52;27.49;100794.66;5056890;28;45562;-52
2022/07/19 05:08:42;;;;;;;;;11.50;8.75;;;;;29.25;27.41;100748.69;5057177;28;45564;-50
2022/07/19 05:11:08;;;;;;;;;10.75;9.50;;;;;29.46;28.02;100782.69;5022691;28;45548;-49
2022/07/19 05:13:33;;;;;;;;;8.25;8.25;;;;;29.52;27.64;100794.66;5038597;28;47334;-54
2022/07/19 05:15:59;;;;;;;;;9.00;8.75;;;;;29.48;27.76;100780.38;5056977;28;45417;-55
2022/07/19 05:18:24;;;;;;;;;12.25;8.50;;;;;29.35;27.46;100776.59;5057001;28;45726;-51
2022/07/19 05:20:50;;;;;;;;;8.75;7.50;;;;;29.43;27.15;100798.31;5056039;28;45518;-52
2022/07/19 05:23:15;;;;;;;;;8.00;7.00;;;;;29.41;27.86;100792.19;5038878;28;46433;-53
2022/07/19 05:25:41;;;;;;;;;8.25;8.25;;;;;29.38;27.89;100778.72;5056791;28;45379;-51
2022/07/19 05:28:06;;;;;;;;;7.50;7.00;;;;;29.42;27.49;100791.00;5038254;28;45529;-54
2022/07/19 05:30:32;;;;;;;;;12.25;9.00;;;;;29.35;27.89;100793.53;5041581;28;45363;-53
2022/07/19 05:32:57;;;;;;;;;10.00;9.00;;;;;29.31;28.21;100796.22;5036240;28;45662;-54
2022/07/19 05:35:23;;;;;;;;;7.25;7.25;;;;;29.16;27.92;100785.47;5036439;28;45402;-51
2022/07/19 05:37:48;;;;;;;;;9.50;8.50;;;;;29.17;28.45;100789.94;5036262;28;45320;-52
2022/07/19 05:40:14;;;;;;;;;8.25;8.25;;;;;29.14;27.98;100777.34;5036343;28;45330;-53
2022/07/19 05:42:39;;;;;;;;;9.50;9.25;;;;;29.17;27.79;100787.13;5035915;28;46206;-52
2022/07/19 05:45:05;;;;;;;;;9.25;7.00;;;;;29.19;27.77;100776.31;5013134;28;45723;-54
2022/07/19 05:47:30;;;;;;;;;9.50;8.50;;;;;29.16;28.29;100780.66;5053932;28;45294;-50
2022/07/19 05:49:58;;;;;;;;;10.00;9.00;;;;;29.14;28.50;100768.88;5034922;28;45350;-52
2022/07/19 05:52:23;;;;;;;;;9.20;8.60;;;;;29.18;28.04;100777.50;5038428;28;46972;-51
2022/07/19 05:54:49;;;;;;;;;9.25;9.25;;;;;29.18;28.45;100774.69;5055723;28;45376;-51
2022/07/19 05:57:14;;;;;;;;;10.00;10.00;;;;;29.24;28.38;100784.63;5038293;28;45521;-49
2022/07/19 05:59:40;;;;;;;;;8.25;7.50;;;;;29.05;28.07;100739.81;5056475;28;45539;-53
2022/07/19 06:02:05;;;;;;;;;8.50;8.50;;;;;29.24;28.56;100773.31;5055990;28;45867;-53
2022/07/19 06:04:31;;;;;;;;;9.25;8.00;;;;;29.30;28.06;100763.47;5056134;28;45333;-52
2022/07/19 06:06:56;;;;;;;;;8.00;8.00;;;;;29.25;28.00;100760.00;5056227;28;45392;-52
2022/07/19 06:09:22;;;;;;;;;9.50;9.25;;;;;29.32;28.13;100772.44;5056292;28;45297;-51
2022/07/19 06:11:47;;;;;;;;;8.50;8.50;;;;;29.21;28.12;100748.56;5055793;28;45722;-53
2022/07/19 06:14:13;;;;;;;;;9.25;8.75;;;;;29.24;28.25;100750.72;5037805;28;45579;-55
2022/07/19 06:16:40;;;;;;;;;10.25;9.50;;;;;29.29;28.51;100739.19;5056121;28;45209;-56
2022/07/19 06:19:06;;;;;;;;;12.00;11.00;;;;;29.50;27.73;100769.53;5037888;28;45326;-55
2022/07/19 06:21:32;;;;;;;;;7.50;7.50;;;;;29.50;28.09;100761.06;5037323;28;46599;-48
2022/07/19 06:23:57;;;;;;;;;10.00;9.75;;;;;29.41;28.50;100735.66;5055751;28;45358;-51
2022/07/19 06:26:23;;;;;;;;;10.25;9.50;;;;;29.60;27.76;100754.19;5037841;28;45366;-50
2022/07/19 06:28:48;;;;;;;;;10.00;10.00;;;;;29.67;28.38;100753.66;5056279;28;45421;-53
2022/07/19 06:31:14;;;;;;;;;14.75;11.75;;;;;29.67;27.81;100754.47;5055260;28;46356;-51
2022/07/19 06:33:40;;;;;;;;;11.75;10.00;;;;;29.65;27.80;100751.16;5038032;28;45365;-51
2022/07/19 06:36:06;;;;;;;;;8.80;8.80;;;;;29.59;28.25;100732.75;5055573;28;45369;-56
2022/07/19 06:38:31;;;;;;;;;8.75;8.25;;;;;29.74;28.26;100751.09;5055086;28;45638;-55
2022/07/19 06:40:57;;;;;;;;;10.00;10.00;;;;;29.56;28.07;100717.28;5055642;28;46477;-55
2022/07/19 06:43:22;;;;;;;;;11.25;9.50;;;;;29.76;27.73;100740.28;5020979;28;45602;-52
2022/07/19 06:45:48;;;;;;;;;11.25;9.25;;;;;29.73;28.34;100729.66;5055861;28;45311;-57
2022/07/19 06:48:13;;;;;;;;;11.00;10.00;;;;;29.79;28.29;100731.13;5055960;28;45340;-59
2022/07/19 06:50:39;;;;;;;;;5.75;5.75;;;;;29.85;28.17;100732.56;5017675;28;45980;-51
2022/07/19 06:53:05;;;;;;;;;10.00;9.00;;;;;29.85;28.25;100741.06;5055713;28;45172;-53
2022/07/19 06:55:30;;;;;;;;;9.25;8.75;;;;;29.88;28.29;100736.72;5055763;28;45316;-51
2022/07/19 06:57:55;;;;;;;;;10.50;8.00;;;;;29.85;28.30;100735.41;5056015;28;45564;-59
2022/07/19 07:00:21;;;;;;;;;12.00;10.00;;;;;29.83;27.81;100736.91;5055419;28;45427;-59
2022/07/19 07:02:46;;;;;;;;;11.75;9.00;;;;;29.70;28.06;100719.03;5037271;28;45387;-54
2022/07/19 07:05:12;;;;;;;;;10.50;8.50;;;;;29.84;27.54;100735.72;5055338;28;45393;-56
2022/07/19 07:07:38;;;;;;;;;9.25;9.25;;;;;29.72;27.84;100711.84;5055762;28;45636;-54
2022/07/19 07:10:04;;;;;;;;;13.20;10.20;;;;;29.93;28.31;100744.97;5020811;28;48857;-52
2022/07/19 07:12:30;;;;;;;;;11.60;10.40;;;;;29.94;28.44;100738.16;5020501;28;45531;-56
2022/07/19 07:14:55;;;;;;;;;12.25;10.75;;;;;29.94;28.28;100732.50;5055701;28;45368;-55
2022/07/19 07:17:21;;;;;;;;;9.50;8.00;;;;;29.99;28.28;100742.78;5055547;28;45392;-52
2022/07/19 07:19:46;;;;;;;;;10.50;8.50;;;;;29.98;28.51;100736.28;5036879;28;46092;-55
2022/07/19 07:22:12;;;;;;;;;10.25;10.25;;;;;30.04;28.67;100728.44;5055322;28;45470;-51
2022/07/19 07:24:38;;;;;;;;;7.75;7.75;;;;;30.10;28.96;100729.88;5054907;28;45247;-54
2022/07/19 07:27:03;;;;;;;;;9.50;9.50;;;;;30.13;28.76;100731.19;5030734;28;45441;-52
2022/07/19 07:29:29;;;;;;;;;13.25;12.00;;;;;30.13;28.21;100725.53;5053690;28;45655;-55
2022/07/19 07:31:54;;;;;;;;;10.00;10.00;;;;;30.18;28.14;100724.50;5053901;28;45440;-53
2022/07/19 07:34:20;;;;;;;;;9.25;7.75;;;;;30.22;28.94;100716.97;5035919;28;45658;-51
2022/07/19 07:36:46;;;;;;;;;9.75;8.00;;;;;30.27;28.60;100725.25;5053613;28;45389;-54
2022/07/19 07:39:11;;;;;;;;;7.00;7.00;;;;;30.20;28.99;100705.19;5054577;28;46784;-56
2022/07/19 07:41:37;;;;;;;;;13.00;13.00;;;;;30.35;28.85;100721.50;5020123;28;45425;-55
2022/07/19 07:44:03;;;;;;;;;15.75;13.00;;;;;30.38;28.24;100708.66;5054743;28;45357;-52
2022/07/19 07:46:28;;;;;;;;;11.50;11.50;;;;;30.37;28.65;100692.84;5054955;28;45952;-54
2022/07/19 07:48:54;;;;;;;;;11.25;11.25;;;;;30.51;28.79;100709.53;5051000;28;46489;-54
2022/07/19 07:51:19;;;;;;;;;10.00;10.00;;;;;30.55;27.99;100711.31;5033298;28;45381;-54
2022/07/19 07:53:45;;;;;;;;;10.50;8.00;;;;;30.41;28.07;100679.66;5038360;28;45321;-56
2022/07/19 07:56:10;;;;;;;;;13.25;11.75;;;;;30.57;28.04;100691.16;5020601;28;45533;-52
2022/07/19 07:58:36;;;;;;;;;12.50;11.50;;;;;30.66;27.72;100696.69;5003662;28;45456;-54
2022/07/19 08:01:01;;;;;;;;;13.00;12.50;;;;;30.68;27.40;100697.22;5020432;28;45410;-51
2022/07/19 08:03:26;;;;;;;;;11.25;10.25;;;;;30.72;27.17;100694.50;5038309;28;45430;-55
2022/07/19 08:05:52;;;;;;;;;15.00;13.75;;;;;30.79;27.28;100691.91;5038118;28;45379;-55
2022/07/19 08:08:17;;;;;;;;;18.00;13.25;;;;;30.83;27.46;100690.84;5037907;28;45602;-55
2022/07/19 08:10:43;;;;;;;;;12.50;12.50;;;;;30.89;27.15;100682.13;5039269;28;45354;-53
2022/07/19 08:13:09;;;;;;;;;13.00;13.00;;;;;30.81;27.36;100659.22;5021422;28;45730;-53
2022/07/19 08:15:37;;;;;;;;;9.25;9.25;;;;;31.05;27.93;100680.22;5038039;28;45371;-54
2022/07/19 08:18:03;;;;;;;;;11.60;11.20;;;;;31.09;27.74;100671.84;5028438;28;45400;-50
2022/07/19 08:20:29;;;;;;;;;13.00;13.00;;;;;31.02;27.56;100663.94;5039200;28;45501;-50
2022/07/19 08:22:54;;;;;;;;;13.75;12.50;;;;;31.19;27.38;100674.22;5057853;28;45406;-54
2022/07/19 08:25:20;;;;;;;;;18.25;14.75;;;;;31.25;27.55;100671.94;5057579;28;45421;-58
2022/07/19 08:27:45;;;;;;;;;13.75;13.25;;;;;31.18;27.43;100649.06;5056771;28;45463;-56
2022/07/19 08:30:11;;;;;;;;;15.75;15.75;;;;;31.31;27.36;100647.06;5055722;28;45397;-54
2022/07/19 08:32:37;;;;;;;;;11.50;11.25;;;;;31.53;26.84;100670.41;5057201;28;45425;-52
2022/07/19 08:35:04;;;;;;;;;13.80;13.00;;;;;31.47;26.80;100638.66;5057564;28;45365;-54
2022/07/19 08:37:30;;;;;;;;;14.80;12.80;;;;;31.72;26.53;100675.44;5019078;28;47181;-56
2022/07/19 08:39:55;;;;;;;;;14.25;11.75;;;;;31.76;26.39;100667.88;5035488;28;45951;-51
2022/07/19 08:42:21;;;;;;;;;14.75;13.75;;;;;31.80;26.21;100654.63;5045445;28;45378;-50
2022/07/19 08:44:50;;;;;;;;;11.75;11.75;;;;;31.88;25.99;100665.03;5057249;28;45318;-56
2022/07/19 08:47:16;;;;;;;;;11.20;10.60;;;;;31.94;26.02;100650.59;5039375;28;45492;-58
2022/07/19 08:49:42;;;;;;;;;12.00;12.00;;;;;31.85;26.17;100637.34;5022686;28;45449;-55
2022/07/19 08:52:08;;;;;;;;;11.60;10.40;;;;;32.03;25.78;100649.25;5023242;28;45478;-54
2022/07/19 08:54:34;;;;;;;;;10.25;10.25;;;;;32.12;25.93;100646.22;5041383;28;45348;-52
2022/07/19 08:59:43;;;;;;;;;9.60;9.60;;;;;32.24;25.26;100634.00;5076046;28;45408;-57
2022/07/19 09:02:09;;;;;;;;;14.50;14.00;;;;;32.35;25.64;100636.28;5075953;28;45299;-59
2022/07/19 09:04:34;;;;;;;;;12.50;11.00;;;;;32.42;25.24;100639.34;5077408;28;45347;-52
2022/07/19 09:07:00;;;;;;;;;14.50;9.00;;;;;32.53;24.65;100628.25;5078489;28;45608;-61
2022/07/19 09:09:26;;;;;;;;;14.75;11.25;;;;;32.68;25.16;100638.81;5079812;28;45211;-53
2022/07/19 09:11:53;;;;;;;;;11.00;10.20;;;;;32.76;24.67;100633.31;5061644;28;45299;-59
2022/07/19 09:14:30;;;;;;;;;12.00;11.00;;;;;32.84;24.05;100629.44;5079818;28;45319;-54
2022/07/19 09:17:01;;;;;;;;;10.80;10.80;;;;;32.96;23.65;100632.22;5061602;28;46076;-58
2022/07/19 09:19:27;;;;;;;;;9.00;9.00;;;;;32.88;23.53;100604.78;5045385;28;45282;-58
2022/07/19 09:22:02;;;;;;;;;11.00;10.40;;;;;33.09;24.08;100632.09;5061643;28;45327;-55
2022/07/19 09:24:32;;;;;;;;;11.60;10.20;;;;;33.17;23.86;100624.56;5080099;28;45367;-57
2022/07/19 09:27:05;;;;;;;;;13.80;13.00;;;;;33.27;23.82;100623.97;5080022;28;45789;-59
2022/07/19 09:29:32;;;;;;;;;11.60;11.60;;;;;33.17;23.34;100591.28;5061806;28;45263;-58
2022/07/19 09:32:01;;;;;;;;;12.00;11.20;;;;;32.89;22.93;100543.09;5061925;28;45327;-63
2022/07/19 09:34:34;;;;;;;;;14.60;10.20;;;;;33.40;23.37;100604.78;5060457;28;45273;-61
2022/07/19 09:37:17;;;;;;;;;10.60;10.00;;;;;33.48;23.62;100605.75;5053616;28;46205;-61
2022/07/19 09:39:45;;;;;;;;;10.00;9.20;;;;;33.53;22.33;100609.16;5056826;28;45851;-60
2022/07/19 09:42:15;;;;;;;;;10.40;10.00;;;;;33.63;22.37;100606.91;5058857;28;45357;-63
2022/07/19 09:44:40;;;;;;;;;11.60;10.40;;;;;33.64;22.34;100598.00;5059034;28;45443;-62
2022/07/19 09:47:06;;;;;;;;;11.00;11.00;;;;;33.69;21.95;100598.88;5076486;28;46478;-55
2022/07/19 09:49:32;;;;;;;;;11.50;11.00;;;;;33.76;22.71;100596.19;5058814;28;45444;-65
2022/07/19 09:52:00;;;;;;;;;11.80;10.80;;;;;33.80;22.33;100597.91;5025142;28;45395;-61
2022/07/19 09:54:27;;;;;;;;;10.80;10.80;;;;;33.83;21.44;100586.97;5021472;28;45892;-65
2022/07/19 09:56:54;;;;;;;;;10.00;8.80;;;;;33.88;21.50;100581.78;5024790;28;45384;-54
2022/07/19 09:59:20;;;;;;;;;9.80;9.00;;;;;33.99;21.63;100586.88;5055900;28;45437;-63
2022/07/19 10:01:50;;;;;;;;;10.40;10.40;;;;;34.07;21.78;100583.00;5023765;28;45406;-52
2022/07/19 10:04:19;;;;;;;;;11.80;11.80;;;;;34.08;21.19;100563.91;5041807;28;45521;-58
2022/07/19 10:06:47;;;;;;;;;11.40;9.40;;;;;34.19;21.40;100576.28;5040545;28;47798;-64
2022/07/19 10:09:16;;;;;;;;;9.80;9.80;;;;;34.20;21.41;100561.69;5040427;28;45337;-61
2022/07/19 10:11:42;;;;;;;;;10.40;10.40;;;;;34.27;21.04;100558.16;5040673;28;45407;-63
2022/07/19 10:14:08;;;;;;;;;11.20;9.40;;;;;34.32;20.86;100548.47;5027102;28;45454;-66
2022/07/19 10:16:49;;;;;;;;;11.40;10.40;;;;;34.49;20.14;100572.75;5020289;28;47311;-62
2022/07/19 10:19:33;;;;;;;;;12.20;9.60;;;;;34.57;20.17;100559.47;5036951;28;45877;-64
2022/07/19 10:22:04;;;;;;;;;9.20;9.20;;;;;34.59;20.21;100551.38;5022763;28;45785;-63
2022/07/19 10:24:49;;;;;;;;;8.00;8.00;;;;;34.62;20.54;100536.34;5049205;28;45676;-63
2022/07/19 10:27:19;;;;;;;;;8.60;8.60;;;;;34.72;20.23;100529.16;5036738;28;46021;-59
2022/07/19 10:29:47;;;;;;;;;10.60;10.40;;;;;34.79;20.04;100537.84;5069682;28;45423;-58
2022/07/19 10:32:13;;;;;;;;;14.20;12.00;;;;;34.85;19.89;100527.72;5020600;28;45347;-63
2022/07/19 10:34:39;;;;;;;;;10.40;10.00;;;;;34.92;20.16;100524.19;5053162;28;45511;-59
2022/07/19 10:37:08;;;;;;;;;9.60;9.60;;;;;35.07;19.23;100521.50;5039587;28;47688;-61
2022/07/19 10:39:35;;;;;;;;;9.60;9.60;;;;;35.09;19.28;100524.81;5039562;28;45376;-61
2022/07/19 10:42:20;;;;;;;;;10.80;10.80;;;;;35.17;19.20;100518.03;5056989;28;45332;-59
2022/07/19 10:45:12;;;;;;;;;10.60;10.40;;;;;35.32;19.10;100521.84;5053484;28;45936;-61
2022/07/19 10:47:42;;;;;;;;;12.20;10.00;;;;;35.45;19.17;100508.19;5051774;28;46324;-59
2022/07/19 10:50:21;;;;;;;;;9.40;9.40;;;;;35.51;18.70;100506.63;5055213;28;45248;-59
2022/07/19 10:52:47;;;;;;;;;8.40;8.40;;;;;35.62;18.56;100491.66;5055393;28;45410;-62
2022/07/19 10:55:23;;;;;;;;;11.25;10.00;;;;;35.66;18.13;100496.22;5054446;28;45496;-59
2022/07/19 10:58:06;;;;;;;;;10.60;9.00;;;;;35.73;17.73;100489.75;5054860;28;46648;-59
2022/07/19 11:00:46;;;;;;;;;13.60;10.00;;;;;35.83;17.76;100491.06;5055306;28;45416;-62
2022/07/19 11:03:21;;;;;;;;;11.80;11.80;;;;;35.92;17.27;100477.31;5054174;28;45291;-63
2022/07/19 11:05:53;;;;;;;;;13.80;11.60;;;;;35.97;17.60;100487.53;5055407;28;45388;-64
2022/07/19 11:08:39;;;;;;;;;8.40;8.40;;;;;36.05;16.97;100476.97;5055130;28;46639;-64
2022/07/19 11:11:17;;;;;;;;;7.80;7.80;;;;;36.13;16.86;100467.31;5053521;28;45431;-64
2022/07/19 11:13:44;;;;;;;;;10.20;9.20;;;;;36.19;17.40;100464.91;5053953;28;45611;-62
2022/07/19 11:16:09;;;;;;;;;11.00;9.00;;;;;36.28;17.05;100467.41;5054336;28;45559;-63
2022/07/19 11:18:34;;;;;;;;;8.00;7.00;;;;;36.39;17.05;100467.50;5053491;28;45860;-63